Time;durP1;ratioP1;P1;durP2;ratioP2;P2;SDS_P1;SDS_P2;PMS_P1;PMS_P2;Temp;Humidity;BMP_temperature;BMP_pressure;BME280_temperature;BME280_humidity;BME280_pressure;Samples;Min_cycle;Max_cycle;Signal;HPM_P1;HPM_P2
2021/10/27 00:01:19;;;;;;;17.00;11.70;;;;;;;;;;5072788;28;20033;-81
2021/10/27 00:03:44;;;;;;;20.08;11.82;;;;;;;;;;5086096;28;20154;-81
2021/10/27 00:06:10;;;;;;;16.98;12.10;;;;;;;;;;5080568;28;20447;-81
2021/10/27 00:08:35;;;;;;;19.83;11.90;;;;;;;;;;5092394;28;20051;-82
2021/10/27 00:11:01;;;;;;;19.23;12.23;;;;;;;;;;5092604;28;20107;-81
2021/10/27 00:13:26;;;;;;;19.10;11.50;;;;;;;;;;5086111;28;20483;-81
2021/10/27 00:15:52;;;;;;;18.17;12.15;;;;;;;;;;5078763;28;20047;-81
2021/10/27 00:18:17;;;;;;;17.50;11.60;;;;;;;;;;5082314;28;20034;-82
2021/10/27 00:20:43;;;;;;;17.05;11.55;;;;;;;;;;5085535;28;20028;-81
2021/10/27 00:23:09;;;;;;;17.23;11.05;;;;;;;;;;5075809;28;20095;-82
2021/10/27 00:25:34;;;;;;;18.05;11.65;;;;;;;;;;5078519;28;20116;-81
2021/10/27 00:27:59;;;;;;;14.43;11.57;;;;;;;;;;5074697;28;20043;-82
2021/10/27 00:30:25;;;;;;;16.25;11.43;;;;;;;;;;5095567;28;20030;-82
2021/10/27 00:32:50;;;;;;;18.13;11.35;;;;;;;;;;5074626;28;20416;-82
2021/10/27 00:35:16;;;;;;;20.58;12.05;;;;;;;;;;5086097;28;20502;-81
2021/10/27 00:37:41;;;;;;;17.65;11.93;;;;;;;;;;5089021;28;20037;-80
2021/10/27 00:40:08;;;;;;;16.50;11.65;;;;;;;;;;5081116;28;20099;-82
2021/10/27 00:42:34;;;;;;;20.85;11.18;;;;;;;;;;5089489;28;20071;-80
2021/10/27 00:44:59;;;;;;;18.10;11.75;;;;;;;;;;5089190;28;20549;-81
2021/10/27 00:47:25;;;;;;;17.90;10.68;;;;;;;;;;5088122;28;20024;-81
2021/10/27 00:49:50;;;;;;;18.60;11.02;;;;;;;;;;5085735;28;20032;-80
2021/10/27 00:52:18;;;;;;;13.93;10.65;;;;;;;;;;5061615;28;20107;-82
2021/10/27 00:54:50;;;;;;;14.80;10.65;;;;;;;;;;5089194;28;20016;-82
2021/10/27 00:57:19;;;;;;;14.88;10.88;;;;;;;;;;5080203;28;20719;-80
2021/10/27 00:59:46;;;;;;;17.02;10.18;;;;;;;;;;5091414;28;20024;-81
2021/10/27 01:02:13;;;;;;;17.15;11.10;;;;;;;;;;5097429;28;20031;-82
2021/10/27 01:04:39;;;;;;;18.23;10.05;;;;;;;;;;5092076;28;20020;-81
2021/10/27 01:07:05;;;;;;;16.23;10.18;;;;;;;;;;5091161;28;20111;-81
2021/10/27 01:09:31;;;;;;;13.95;8.95;;;;;;;;;;5058738;28;20036;-81
2021/10/27 01:11:58;;;;;;;17.58;10.13;;;;;;;;;;5089122;28;20115;-81
2021/10/27 01:14:36;;;;;;;14.73;9.38;;;;;;;;;;5085687;28;20114;-82
2021/10/27 01:17:05;;;;;;;12.45;8.73;;;;;;;;;;5087530;28;20041;-80
2021/10/27 01:19:44;;;;;;;14.68;8.90;;;;;;;;;;5088803;28;20035;-81
2021/10/27 01:22:11;;;;;;;11.73;8.25;;;;;;;;;;5086680;28;20411;-81
2021/10/27 01:24:37;;;;;;;13.50;8.43;;;;;;;;;;5089975;28;20109;-82
2021/10/27 01:27:03;;;;;;;12.95;8.02;;;;;;;;;;5070998;28;20500;-82
2021/10/27 01:29:28;;;;;;;11.05;7.97;;;;;;;;;;5082162;28;20028;-81
2021/10/27 01:31:54;;;;;;;11.07;7.78;;;;;;;;;;5083947;28;20032;-82
2021/10/27 01:34:19;;;;;;;12.50;8.43;;;;;;;;;;5088868;28;20020;-81
2021/10/27 01:36:45;;;;;;;11.13;7.68;;;;;;;;;;5094230;28;20033;-81
2021/10/27 01:39:10;;;;;;;12.48;8.13;;;;;;;;;;5076115;28;20044;-81
2021/10/27 01:41:36;;;;;;;13.10;7.80;;;;;;;;;;5083274;28;20412;-81
2021/10/27 01:44:01;;;;;;;11.13;7.25;;;;;;;;;;5077725;28;20507;-81
2021/10/27 01:46:33;;;;;;;13.02;7.32;;;;;;;;;;5092959;28;20048;-82
2021/10/27 01:49:01;;;;;;;11.90;6.93;;;;;;;;;;5079808;28;20522;-82
2021/10/27 01:51:27;;;;;;;15.95;7.60;;;;;;;;;;5092489;28;20447;-82
2021/10/27 01:53:54;;;;;;;12.38;7.47;;;;;;;;;;5087867;28;20096;-81
2021/10/27 01:56:20;;;;;;;15.43;7.00;;;;;;;;;;5074481;28;20039;-81
2021/10/27 01:58:46;;;;;;;12.27;6.57;;;;;;;;;;5090960;28;20023;-82
2021/10/27 02:01:12;;;;;;;13.80;6.50;;;;;;;;;;5069232;28;20042;-81
2021/10/27 02:03:37;;;;;;;12.52;5.88;;;;;;;;;;5075326;28;20040;-81
2021/10/27 02:06:03;;;;;;;11.63;6.57;;;;;;;;;;5057620;28;20543;-81
2021/10/27 02:08:28;;;;;;;19.20;7.45;;;;;;;;;;5080475;28;20039;-82
2021/10/27 02:10:54;;;;;;;10.73;5.57;;;;;;;;;;5093323;28;20106;-82
2021/10/27 02:13:19;;;;;;;13.77;5.65;;;;;;;;;;5085492;28;20024;-82
2021/10/27 02:15:45;;;;;;;12.07;6.22;;;;;;;;;;5086094;28;20052;-81
2021/10/27 02:18:11;;;;;;;10.15;5.30;;;;;;;;;;5091730;28;20021;-82
2021/10/27 02:20:36;;;;;;;12.77;6.20;;;;;;;;;;5081008;28;20059;-81
2021/10/27 02:23:02;;;;;;;10.38;5.13;;;;;;;;;;5070453;28;20024;-81
2021/10/27 02:25:27;;;;;;;11.18;4.90;;;;;;;;;;5094061;28;20024;-80
2021/10/27 02:27:53;;;;;;;9.77;5.03;;;;;;;;;;5077419;28;20027;-81
2021/10/27 02:30:19;;;;;;;9.93;5.03;;;;;;;;;;5093701;28;20032;-82
2021/10/27 02:32:45;;;;;;;9.52;4.40;;;;;;;;;;5073524;28;20028;-81
2021/10/27 02:35:10;;;;;;;8.75;4.38;;;;;;;;;;5091297;28;20059;-81
2021/10/27 02:37:36;;;;;;;10.35;4.63;;;;;;;;;;5080605;28;20027;-81
2021/10/27 02:40:02;;;;;;;8.70;4.40;;;;;;;;;;5090312;28;20032;-82
2021/10/27 02:42:28;;;;;;;7.32;4.00;;;;;;;;;;5086997;28;20028;-81
2021/10/27 02:44:54;;;;;;;8.40;4.70;;;;;;;;;;5079894;28;20124;-81
2021/10/27 02:47:19;;;;;;;10.02;4.53;;;;;;;;;;5080695;28;20047;-82
2021/10/27 02:49:44;;;;;;;8.13;3.95;;;;;;;;;;5090917;28;20032;-81
2021/10/27 02:52:11;;;;;;;12.07;4.35;;;;;;;;;;5076835;28;20036;-82
2021/10/27 02:54:36;;;;;;;12.43;4.25;;;;;;;;;;5076458;28;20039;-81
2021/10/27 02:57:02;;;;;;;11.75;4.47;;;;;;;;;;5070174;28;20037;-82
2021/10/27 02:59:27;;;;;;;11.43;4.22;;;;;;;;;;5080016;28;20066;-81
2021/10/27 03:01:52;;;;;;;6.95;3.55;;;;;;;;;;5090097;28;20119;-82
2021/10/27 03:04:18;;;;;;;9.25;3.85;;;;;;;;;;5079190;28;20032;-81
2021/10/27 03:06:43;;;;;;;7.55;4.10;;;;;;;;;;5071435;28;20468;-82
2021/10/27 03:09:08;;;;;;;8.80;4.05;;;;;;;;;;5057582;28;20040;-80
2021/10/27 03:11:34;;;;;;;9.23;4.10;;;;;;;;;;5073822;28;20434;-81
2021/10/27 03:14:00;;;;;;;7.10;3.78;;;;;;;;;;5092508;28;20032;-82
2021/10/27 03:16:25;;;;;;;10.77;4.00;;;;;;;;;;5086313;28;20044;-81
2021/10/27 03:18:50;;;;;;;10.73;3.90;;;;;;;;;;5090905;28;20498;-81
2021/10/27 03:21:16;;;;;;;8.35;3.80;;;;;;;;;;5074768;28;20032;-81
2021/10/27 03:23:42;;;;;;;10.70;3.88;;;;;;;;;;5080547;28;20028;-81
2021/10/27 03:26:08;;;;;;;10.25;3.95;;;;;;;;;;5083777;28;20092;-82
2021/10/27 03:28:33;;;;;;;9.18;3.72;;;;;;;;;;5084246;28;20028;-80
2021/10/27 03:30:59;;;;;;;8.63;3.88;;;;;;;;;;5091234;28;20480;-82
2021/10/27 03:33:24;;;;;;;10.65;3.75;;;;;;;;;;5090236;28;20066;-81
2021/10/27 03:35:50;;;;;;;7.65;3.78;;;;;;;;;;5095287;28;20066;-81
2021/10/27 03:38:16;;;;;;;8.98;3.55;;;;;;;;;;5070088;28;20462;-82
2021/10/27 03:40:43;;;;;;;9.45;3.53;;;;;;;;;;5087944;28;20094;-80
2021/10/27 03:43:09;;;;;;;11.93;3.78;;;;;;;;;;5095908;28;20059;-81
2021/10/27 03:45:34;;;;;;;8.25;3.35;;;;;;;;;;5091582;28;20396;-82
2021/10/27 03:48:00;;;;;;;12.18;3.60;;;;;;;;;;5092302;28;20414;-82
2021/10/27 03:50:25;;;;;;;7.90;3.50;;;;;;;;;;5104417;28;20027;-82
2021/10/27 03:52:51;;;;;;;8.88;3.58;;;;;;;;;;5077160;28;20039;-81
2021/10/27 03:55:17;;;;;;;7.60;3.25;;;;;;;;;;5072310;28;20062;-81
2021/10/27 03:57:42;;;;;;;8.77;3.30;;;;;;;;;;5080245;28;20100;-81
2021/10/27 04:00:09;;;;;;;8.05;3.05;;;;;;;;;;5076963;28;20443;-81
2021/10/27 04:02:39;;;;;;;7.32;3.33;;;;;;;;;;5095954;28;20058;-81
2021/10/27 04:05:07;;;;;;;8.05;3.00;;;;;;;;;;5085449;28;20027;-80
2021/10/27 04:07:36;;;;;;;5.53;3.10;;;;;;;;;;5088314;28;20036;-82
2021/10/27 04:10:03;;;;;;;8.15;2.78;;;;;;;;;;5088405;28;20467;-81
2021/10/27 04:12:29;;;;;;;7.50;3.30;;;;;;;;;;5093189;28;20043;-80
2021/10/27 04:14:54;;;;;;;6.47;2.65;;;;;;;;;;5078933;28;20031;-82
2021/10/27 04:17:19;;;;;;;8.27;3.35;;;;;;;;;;5079751;28;22188;-82
2021/10/27 04:19:45;;;;;;;7.38;3.20;;;;;;;;;;5077474;28;20082;-82
2021/10/27 04:22:10;;;;;;;9.00;3.38;;;;;;;;;;5098631;28;20028;-81
2021/10/27 04:24:36;;;;;;;7.80;3.28;;;;;;;;;;5087751;28;20028;-81
2021/10/27 04:27:02;;;;;;;9.00;3.33;;;;;;;;;;5084775;28;20043;-81
2021/10/27 04:29:27;;;;;;;6.95;3.00;;;;;;;;;;5090703;28;20719;-81
2021/10/27 04:31:53;;;;;;;9.73;3.00;;;;;;;;;;5083120;28;20456;-81
2021/10/27 04:34:18;;;;;;;10.85;3.17;;;;;;;;;;5070365;28;20084;-81
2021/10/27 04:36:44;;;;;;;7.57;3.00;;;;;;;;;;5076269;28;20042;-80
2021/10/27 04:39:09;;;;;;;8.80;3.20;;;;;;;;;;5082795;28;20062;-81
2021/10/27 04:41:35;;;;;;;8.88;3.00;;;;;;;;;;5078705;28;20479;-80
2021/10/27 04:44:00;;;;;;;6.32;3.10;;;;;;;;;;5090181;28;20024;-81
2021/10/27 04:46:27;;;;;;;7.93;3.28;;;;;;;;;;5070551;28;20064;-81
2021/10/27 04:48:53;;;;;;;6.97;2.90;;;;;;;;;;5081235;28;20077;-81
2021/10/27 04:51:18;;;;;;;7.60;2.85;;;;;;;;;;5097357;28;20023;-82
2021/10/27 04:53:43;;;;;;;8.63;3.00;;;;;;;;;;5094497;28;20031;-81
2021/10/27 04:56:09;;;;;;;8.00;3.72;;;;;;;;;;5071044;28;20036;-82
2021/10/27 04:58:34;;;;;;;9.25;3.38;;;;;;;;;;5092850;28;20032;-81
2021/10/27 05:01:00;;;;;;;8.52;3.47;;;;;;;;;;5057791;28;20123;-81
2021/10/27 05:03:25;;;;;;;7.43;3.20;;;;;;;;;;5092708;28;20484;-81
2021/10/27 05:05:56;;;;;;;7.68;3.25;;;;;;;;;;5060972;28;20029;-81
2021/10/27 05:08:24;;;;;;;5.97;3.17;;;;;;;;;;5071927;28;20028;-81
2021/10/27 05:10:53;;;;;;;7.90;3.25;;;;;;;;;;5084468;28;20113;-81
2021/10/27 05:13:19;;;;;;;9.40;3.97;;;;;;;;;;5076733;28;20047;-81
2021/10/27 05:15:46;;;;;;;9.10;3.00;;;;;;;;;;5089918;28;20049;-81
2021/10/27 05:18:12;;;;;;;10.95;3.60;;;;;;;;;;5075815;28;20716;-82
2021/10/27 05:20:38;;;;;;;8.57;3.25;;;;;;;;;;5078717;28;20032;-81
2021/10/27 05:23:03;;;;;;;9.68;3.30;;;;;;;;;;5094686;28;20373;-82
2021/10/27 05:25:29;;;;;;;9.50;3.22;;;;;;;;;;5060353;28;20029;-81
2021/10/27 05:27:54;;;;;;;10.40;3.45;;;;;;;;;;5091787;28;20546;-82
2021/10/27 05:30:20;;;;;;;10.52;4.43;;;;;;;;;;5087278;28;20475;-81
2021/10/27 05:32:45;;;;;;;10.93;3.50;;;;;;;;;;5087183;28;20027;-82
2021/10/27 05:35:11;;;;;;;7.03;3.60;;;;;;;;;;5094851;28;20032;-81
2021/10/27 05:37:37;;;;;;;6.63;3.85;;;;;;;;;;5080054;28;20049;-81
2021/10/27 05:40:03;;;;;;;7.18;3.67;;;;;;;;;;5078849;28;20024;-82
2021/10/27 05:42:29;;;;;;;10.65;4.57;;;;;;;;;;5086117;28;20131;-81
2021/10/27 05:44:57;;;;;;;8.68;4.00;;;;;;;;;;5091094;28;20467;-81
2021/10/27 05:47:23;;;;;;;11.05;3.88;;;;;;;;;;5086377;28;20055;-82
2021/10/27 05:50:06;;;;;;;6.57;3.63;;;;;;;;;;5075482;28;20063;-82
2021/10/27 05:55:23;;;;;;;10.43;4.22;;;;;;;;;;5095787;28;20066;-81
2021/10/27 05:57:43;;;;;;;8.10;3.90;;;;;;;;;;5098501;28;20044;-81
2021/10/27 06:00:10;;;;;;;7.75;3.70;;;;;;;;;;5089855;28;20105;-81
2021/10/27 06:02:36;;;;;;;9.27;4.22;;;;;;;;;;5055731;28;20028;-81
2021/10/27 06:05:02;;;;;;;10.48;5.18;;;;;;;;;;5070821;28;20089;-82
2021/10/27 06:07:27;;;;;;;9.63;4.40;;;;;;;;;;5089673;28;20474;-82
2021/10/27 06:09:55;;;;;;;9.50;4.47;;;;;;;;;;5077833;28;20027;-83
2021/10/27 06:12:21;;;;;;;10.65;4.88;;;;;;;;;;5083071;28;20056;-81
2021/10/27 06:14:46;;;;;;;11.05;4.70;;;;;;;;;;5094946;28;20526;-81
2021/10/27 06:17:12;;;;;;;11.15;4.70;;;;;;;;;;5075923;28;20065;-82
2021/10/27 06:19:38;;;;;;;11.98;4.97;;;;;;;;;;5080837;28;20036;-82
2021/10/27 06:22:05;;;;;;;10.73;4.50;;;;;;;;;;5088921;28;20036;-81
2021/10/27 06:24:30;;;;;;;8.93;4.93;;;;;;;;;;5071302;28;20104;-82
2021/10/27 06:26:57;;;;;;;9.95;5.28;;;;;;;;;;5094056;28;20626;-82
2021/10/27 06:29:32;;;;;;;13.70;4.78;;;;;;;;;;5087831;28;20040;-82
2021/10/27 06:32:16;;;;;;;11.30;4.68;;;;;;;;;;5084028;28;20510;-81
2021/10/27 06:34:48;;;;;;;9.48;5.20;;;;;;;;;;5080864;28;20055;-81
2021/10/27 06:37:32;;;;;;;10.10;4.75;;;;;;;;;;5056029;28;20044;-82
2021/10/27 06:48:01;;;;;;;11.30;5.28;;;;;;;;;;5085655;28;20035;-81
2021/10/27 06:50:27;;;;;;;9.90;5.00;;;;;;;;;;5071711;28;20371;-82
2021/10/27 06:52:53;;;;;;;10.52;5.28;;;;;;;;;;5089828;28;20036;-81
2021/10/27 06:55:18;;;;;;;9.68;5.20;;;;;;;;;;5080401;28;20029;-81
2021/10/27 06:57:44;;;;;;;7.88;5.10;;;;;;;;;;5079835;28;20055;-82
2021/10/27 07:00:57;;;;;;;7.93;4.68;;;;;;;;;;5057893;28;20123;-83
2021/10/27 07:16:14;;;;;;;11.13;4.65;;;;;;;;;;5084317;28;20515;-81
2021/10/27 07:18:40;;;;;;;8.93;4.88;;;;;;;;;;5078205;28;20033;-82
2021/10/27 07:21:12;;;;;;;11.18;5.28;;;;;;;;;;5092783;28;20058;-82
2021/10/27 07:23:39;;;;;;;12.07;5.30;;;;;;;;;;5082765;28;20044;-82
2021/10/27 07:26:05;;;;;;;10.52;5.32;;;;;;;;;;5058802;28;20031;-82
2021/10/27 07:28:31;;;;;;;12.23;6.18;;;;;;;;;;5070427;28;20036;-82
2021/10/27 07:30:58;;;;;;;11.65;5.78;;;;;;;;;;5082380;28;20031;-82
2021/10/27 07:33:28;;;;;;;11.30;5.30;;;;;;;;;;5096840;28;20138;-82
2021/10/27 07:35:59;;;;;;;9.82;4.70;;;;;;;;;;5099809;28;20035;-82
2021/10/27 07:41:12;;;;;;;10.80;5.47;;;;;;;;;;5086098;28;20410;-81
2021/10/27 07:43:37;;;;;;;12.05;6.70;;;;;;;;;;5074155;28;20042;-82
2021/10/27 07:46:04;;;;;;;12.43;5.85;;;;;;;;;;5098381;28;20155;-82
2021/10/27 07:48:32;;;;;;;10.02;5.32;;;;;;;;;;5059856;28;20035;-82
2021/10/27 07:50:58;;;;;;;15.35;6.15;;;;;;;;;;5099663;28;20416;-81
2021/10/27 07:53:27;;;;;;;10.93;6.03;;;;;;;;;;5080358;28;20044;-82
2021/10/27 07:55:53;;;;;;;14.25;6.13;;;;;;;;;;5104810;28;20028;-83
2021/10/27 07:58:19;;;;;;;14.13;6.22;;;;;;;;;;5077880;28;20546;-82
2021/10/27 08:00:45;;;;;;;11.05;6.25;;;;;;;;;;5097930;28;20032;-81
2021/10/27 08:03:12;;;;;;;10.82;6.25;;;;;;;;;;5099169;28;20436;-82
2021/10/27 08:05:41;;;;;;;13.25;6.03;;;;;;;;;;5099715;28;20029;-82
2021/10/27 08:08:22;;;;;;;10.07;6.90;;;;;;;;;;5102731;28;20024;-82
2021/10/27 08:10:48;;;;;;;16.00;6.70;;;;;;;;;;5099886;28;20024;-80
2021/10/27 08:13:14;;;;;;;11.15;6.88;;;;;;;;;;5091064;28;20028;-82
2021/10/27 08:15:40;;;;;;;14.52;7.22;;;;;;;;;;5081271;28;20061;-81
2021/10/27 08:18:10;;;;;;;13.38;7.43;;;;;;;;;;5064498;28;20066;-82
2021/10/27 08:20:39;;;;;;;12.10;7.38;;;;;;;;;;5091096;28;20024;-82
2021/10/27 08:23:07;;;;;;;14.73;7.65;;;;;;;;;;5100801;28;20051;-82
2021/10/27 08:25:40;;;;;;;12.43;7.38;;;;;;;;;;5088551;28;20035;-82
2021/10/27 08:28:10;;;;;;;13.07;7.63;;;;;;;;;;5084245;28;20634;-82
2021/10/27 08:33:20;;;;;;;13.70;7.80;;;;;;;;;;5100798;28;20031;-82
2021/10/27 08:35:46;;;;;;;12.98;8.10;;;;;;;;;;5087566;28;20068;-80
2021/10/27 08:38:12;;;;;;;13.75;8.07;;;;;;;;;;5075481;28;20023;-82
2021/10/27 08:40:43;;;;;;;12.38;7.80;;;;;;;;;;5089915;28;20110;-82
2021/10/27 08:43:10;;;;;;;16.70;8.32;;;;;;;;;;5100052;28;20024;-82
2021/10/27 08:45:36;;;;;;;12.73;8.30;;;;;;;;;;5081407;28;20035;-82
2021/10/27 08:48:08;;;;;;;15.63;8.43;;;;;;;;;;5082694;28;20122;-81
2021/10/27 08:50:34;;;;;;;17.40;8.80;;;;;;;;;;5085361;28;20028;-82
2021/10/27 08:53:01;;;;;;;13.88;8.48;;;;;;;;;;5074505;28;20060;-83
2021/10/27 08:55:27;;;;;;;15.50;8.98;;;;;;;;;;5063713;28;20135;-81
2021/10/27 08:57:53;;;;;;;14.95;9.27;;;;;;;;;;5097722;28;20083;-81
2021/10/27 09:00:29;;;;;;;12.50;8.00;;;;;;;;;;5082761;28;20036;-81
2021/10/27 10:06:34;;;;;;;11.63;8.27;;;;;;;;;;5091203;28;20040;-82
2021/10/27 10:09:01;;;;;;;12.10;8.25;;;;;;;;;;5080223;28;20021;-81
2021/10/27 10:11:30;;;;;;;12.25;8.18;;;;;;;;;;5098495;28;20035;-81
2021/10/27 10:14:02;;;;;;;11.05;7.90;;;;;;;;;;5084924;28;20159;-81
2021/10/27 10:16:35;;;;;;;14.25;8.88;;;;;;;;;;5095348;28;20040;-81
2021/10/27 10:19:06;;;;;;;12.70;8.95;;;;;;;;;;5092265;28;20024;-81
2021/10/27 10:21:34;;;;;;;9.88;7.57;;;;;;;;;;5098801;28;20021;-82
2021/10/27 10:24:27;;;;;;;10.95;7.85;;;;;;;;;;5101856;28;20027;-82
2021/10/27 10:26:58;;;;;;;11.35;7.72;;;;;;;;;;5083474;28;20040;-81
2021/10/27 10:29:37;;;;;;;11.15;7.93;;;;;;;;;;5085396;28;20028;-82
2021/10/27 10:32:22;;;;;;;11.82;7.43;;;;;;;;;;5097351;28;20111;-81
2021/10/27 10:34:52;;;;;;;12.68;7.72;;;;;;;;;;5101462;28;20482;-81
2021/10/27 10:37:34;;;;;;;9.98;7.57;;;;;;;;;;5074065;28;20327;-82
2021/10/27 10:40:24;;;;;;;12.70;7.72;;;;;;;;;;5089943;28;20038;-81
2021/10/27 10:43:06;;;;;;;10.20;7.20;;;;;;;;;;5085206;28;20074;-81
2021/10/27 10:45:44;;;;;;;10.90;6.80;;;;;;;;;;5086618;28;20036;-81
2021/10/27 11:42:19;;;;;;;9.32;6.85;;;;;;;;;;5085819;28;20529;-81
2021/10/27 11:47:38;;;;;;;10.18;6.97;;;;;;;;;;5085496;28;20025;-81
2021/10/27 11:50:06;;;;;;;10.65;6.63;;;;;;;;;;5084408;28;20402;-81
2021/10/27 11:52:37;;;;;;;10.48;6.82;;;;;;;;;;5071705;28;20023;-81
2021/10/27 11:55:13;;;;;;;11.55;7.10;;;;;;;;;;5084676;28;20048;-82
2021/10/27 11:57:41;;;;;;;11.10;7.28;;;;;;;;;;5082540;28;20027;-82
2021/10/27 12:00:45;;;;;;;8.85;6.57;;;;;;;;;;5086201;28;20039;-82
2021/10/27 12:03:16;;;;;;;12.82;6.45;;;;;;;;;;5061408;28;20041;-81
2021/10/27 12:06:00;;;;;;;10.25;7.13;;;;;;;;;;5096857;28;20491;-81
2021/10/27 12:18:09;;;;;;;10.90;7.32;;;;;;;;;;5081975;28;20063;-80
2021/10/27 12:20:44;;;;;;;9.85;7.05;;;;;;;;;;5092519;28;20040;-82
2021/10/27 12:23:35;;;;;;;11.23;8.45;;;;;;;;;;5085115;28;20828;-82
2021/10/27 12:26:15;;;;;;;13.02;8.02;;;;;;;;;;5083143;28;20036;-81
2021/10/27 12:28:41;;;;;;;9.40;7.00;;;;;;;;;;5090614;28;20032;-81
2021/10/27 12:31:19;;;;;;;10.05;6.85;;;;;;;;;;5089497;28;20032;-82
2021/10/27 12:33:45;;;;;;;10.15;7.20;;;;;;;;;;5098228;27;20066;-80
2021/10/27 12:36:30;;;;;;;13.05;8.13;;;;;;;;;;5074801;28;20130;-81
2021/10/27 12:39:28;;;;;;;11.20;8.52;;;;;;;;;;5071687;28;20055;-81
2021/10/27 12:42:07;;;;;;;12.98;8.23;;;;;;;;;;5065094;28;20097;-80
2021/10/27 12:44:43;;;;;;;12.73;7.40;;;;;;;;;;5078156;28;20028;-81
2021/10/27 12:47:30;;;;;;;10.25;7.43;;;;;;;;;;5080425;28;20028;-80
2021/10/27 12:50:18;;;;;;;11.02;7.45;;;;;;;;;;5077868;28;20143;-80
2021/10/27 12:52:56;;;;;;;12.05;8.43;;;;;;;;;;5082426;28;20060;-81
2021/10/27 12:55:43;;;;;;;13.57;8.27;;;;;;;;;;5095867;28;20372;-81
2021/10/27 12:58:13;;;;;;;11.20;8.05;;;;;;;;;;5096775;28;20042;-82
2021/10/27 13:00:55;;;;;;;14.23;8.07;;;;;;;;;;5086776;28;20019;-79
2021/10/27 13:06:22;;;;;;;11.10;7.32;;;;;;;;;;5081125;28;20045;-81
2021/10/27 13:14:41;;;;;;;11.40;6.97;;;;;;;;;;5377620;22;20053;-80
2021/10/27 13:31:05;;;;;;;12.60;6.53;;;;;;;;;;5050158;28;20507;-81
2021/10/27 13:33:36;;;;;;;12.35;6.55;;;;;;;;;;5033364;28;20037;-81
2021/10/27 13:36:02;;;;;;;11.90;7.00;;;;;;;;;;5034982;28;20037;-81
2021/10/27 13:38:37;;;;;;;10.32;6.75;;;;;;;;;;5038111;28;20504;-80
2021/10/27 13:46:48;;;;;;;10.18;6.80;;;;;;;;;;4995265;28;20054;-83
2021/10/27 14:08:21;;;;;;;10.65;6.60;;;;;;;;;;5173331;22;20057;-82
2021/10/27 14:10:58;;;;;;;10.40;6.18;;;;;;;;;;5036369;28;20107;-81
2021/10/27 14:16:27;;;;;;;9.75;6.53;;;;;;;;;;4994035;28;20053;-81
2021/10/27 14:47:29;;;;;;;9.27;5.63;;;;;;;;;;5025655;28;20083;-76
2021/10/27 15:20:55;;;;;;;7.50;3.65;;;;;;;;;;5008198;28;20041;-86
2021/10/27 15:23:50;;;;;;;8.30;4.00;;;;;;;;;;5016300;28;20052;-77
2021/10/27 15:32:21;;;;;;;6.93;3.78;;;;;;;;;;5003829;28;20045;-80
2021/10/27 15:40:38;;;;;;;5.47;3.05;;;;;;;;;;5009455;28;20052;-82
2021/10/27 15:50:34;;;;;;;6.47;3.28;;;;;;;;;;5003519;28;20083;-79
2021/10/27 15:51:36;;;;;;;7.82;3.55;;;;;;;;;;5010513;28;20421;-83
2021/10/27 15:54:03;;;;;;;8.10;3.35;;;;;;;;;;5006651;28;20055;-84
2021/10/27 15:56:29;;;;;;;6.18;3.47;;;;;;;;;;5019982;28;20064;-77
2021/10/27 15:58:54;;;;;;;6.63;3.58;;;;;;;;;;5014646;28;20487;-82
2021/10/27 16:01:20;;;;;;;7.28;3.78;;;;;;;;;;5015838;28;20045;-77
2021/10/27 16:03:47;;;;;;;8.88;3.90;;;;;;;;;;5016515;28;20144;-76
2021/10/27 16:06:15;;;;;;;7.10;3.53;;;;;;;;;;5017357;28;20112;-78
2021/10/27 16:08:49;;;;;;;7.70;3.60;;;;;;;;;;5010075;28;20472;-82
2021/10/27 16:11:15;;;;;;;7.95;3.58;;;;;;;;;;5016672;28;20540;-78
2021/10/27 16:13:40;;;;;;;6.68;3.35;;;;;;;;;;5014167;28;20112;-76
2021/10/27 16:16:06;;;;;;;7.45;3.33;;;;;;;;;;5017895;28;20049;-79
2021/10/27 16:18:32;;;;;;;6.70;3.35;;;;;;;;;;4993610;28;20480;-79
2021/10/27 16:21:02;;;;;;;6.00;3.08;;;;;;;;;;5021429;28;20037;-80
2021/10/27 16:23:28;;;;;;;8.38;3.42;;;;;;;;;;5022024;28;20034;-83
2021/10/27 16:25:54;;;;;;;7.47;3.95;;;;;;;;;;5007991;28;20033;-84
2021/10/27 16:28:22;;;;;;;6.80;3.75;;;;;;;;;;5016857;28;20083;-84
2021/10/27 16:30:48;;;;;;;6.30;4.50;;;;;;;;;;5012257;28;20029;-83
2021/10/27 16:33:14;;;;;;;8.60;4.68;;;;;;;;;;5011349;28;20125;-80
2021/10/27 16:35:43;;;;;;;6.70;3.80;;;;;;;;;;5018485;28;20034;-78
2021/10/27 16:38:09;;;;;;;6.90;4.13;;;;;;;;;;5006361;28;20033;-80
2021/10/27 16:40:35;;;;;;;5.82;3.58;;;;;;;;;;5012217;28;20025;-79
2021/10/27 16:43:01;;;;;;;7.28;3.42;;;;;;;;;;5016609;28;20026;-87
2021/10/27 16:45:29;;;;;;;9.63;3.78;;;;;;;;;;5012339;28;20642;-87
2021/10/27 16:47:55;;;;;;;5.47;3.17;;;;;;;;;;5010606;28;20029;-84
2021/10/27 16:50:20;;;;;;;9.45;4.25;;;;;;;;;;5010980;28;21332;-76
2021/10/27 16:52:46;;;;;;;7.07;4.10;;;;;;;;;;5010379;28;20018;-77
2021/10/27 16:55:18;;;;;;;8.85;4.63;;;;;;;;;;5011820;28;20041;-83
2021/10/27 16:57:46;;;;;;;9.50;7.10;;;;;;;;;;5015963;28;20032;-82
2021/10/27 17:00:18;;;;;;;9.00;6.47;;;;;;;;;;5011455;28;20052;-85
2021/10/27 17:02:43;;;;;;;13.02;8.02;;;;;;;;;;5008253;28;20021;-82
2021/10/27 17:05:10;;;;;;;10.50;8.15;;;;;;;;;;4997903;28;20064;-78
2021/10/27 17:07:35;;;;;;;15.68;9.48;;;;;;;;;;4999566;28;20037;-84
2021/10/27 17:10:03;;;;;;;16.75;12.27;;;;;;;;;;5014124;28;20064;-85
2021/10/27 17:12:28;;;;;;;13.60;8.43;;;;;;;;;;5008806;28;20033;-82
2021/10/27 17:14:54;;;;;;;13.40;8.05;;;;;;;;;;5003610;28;20034;-84
2021/10/27 17:17:19;;;;;;;13.18;5.72;;;;;;;;;;5006941;28;20056;-78
2021/10/27 17:19:46;;;;;;;6.32;4.55;;;;;;;;;;5013272;28;20408;-82
2021/10/27 17:22:12;;;;;;;8.68;4.63;;;;;;;;;;5015513;28;20065;-83
2021/10/27 17:24:39;;;;;;;7.30;4.60;;;;;;;;;;5018258;28;20061;-77
2021/10/27 17:27:04;;;;;;;6.90;4.03;;;;;;;;;;5006471;28;20088;-81
2021/10/27 17:29:33;;;;;;;7.45;4.13;;;;;;;;;;5009364;28;20044;-77
2021/10/27 17:31:59;;;;;;;6.63;4.05;;;;;;;;;;5015846;28;20046;-85
2021/10/27 17:34:25;;;;;;;9.57;5.35;;;;;;;;;;5007448;28;20414;-79
2021/10/27 17:36:51;;;;;;;9.15;5.50;;;;;;;;;;5013962;28;20034;-87
2021/10/27 17:39:17;;;;;;;9.32;5.55;;;;;;;;;;5012594;28;20113;-85
2021/10/27 17:41:46;;;;;;;9.23;5.40;;;;;;;;;;4998233;28;20033;-79
2021/10/27 17:44:13;;;;;;;13.40;6.82;;;;;;;;;;5015964;28;20021;-77
2021/10/27 17:47:01;;;;;;;7.90;5.07;;;;;;;;;;5016873;28;20060;-81
2021/10/27 17:50:35;;;;;;;8.45;4.97;;;;;;;;;;5009126;28;20053;-86
2021/10/27 18:00:03;;;;;;;13.18;8.10;;;;;;;;;;5010911;28;20065;-88
2021/10/27 18:02:30;;;;;;;9.48;6.57;;;;;;;;;;5008639;28;20033;-80
2021/10/27 18:04:56;;;;;;;10.93;5.88;;;;;;;;;;5009251;28;20084;-88
2021/10/27 18:07:26;;;;;;;8.43;5.80;;;;;;;;;;5014107;28;20706;-90
2021/10/27 18:09:53;;;;;;;8.52;6.15;;;;;;;;;;5004635;28;20045;-85
2021/10/27 18:12:22;;;;;;;9.60;6.00;;;;;;;;;;5012108;28;20044;-83
2021/10/27 18:14:48;;;;;;;8.82;5.75;;;;;;;;;;5011315;28;20485;-77
2021/10/27 18:17:18;;;;;;;8.32;5.65;;;;;;;;;;5011935;28;20121;-86
2021/10/27 18:22:27;;;;;;;9.00;5.47;;;;;;;;;;5009405;28;20028;-77
2021/10/27 18:27:57;;;;;;;9.63;5.70;;;;;;;;;;5001717;28;20133;-78
2021/10/27 18:39:18;;;;;;;;;;;;;;;;;;4958586;28;20037;-83
2021/10/27 18:41:54;;;;;;;8.75;5.95;;;;;;;;;;4938555;28;19924;-80
2021/10/27 18:44:20;;;;;;;8.63;6.03;;;;;;;;;;4988720;28;20042;-84
2021/10/27 18:46:55;;;;;;;7.38;5.55;;;;;;;;;;5004522;28;20030;-81
2021/10/27 18:49:21;;;;;;;10.65;6.10;;;;;;;;;;4996318;28;20029;-81
2021/10/27 18:51:56;;;;;;;10.88;6.65;;;;;;;;;;5002235;28;20056;-82
2021/10/27 18:54:49;;;;;;;8.48;6.03;;;;;;;;;;4998099;28;20026;-81
2021/10/27 18:59:49;;;;;;;10.15;5.82;;;;;;;;;;5005552;28;20049;-81
2021/10/27 19:02:40;;;;;;;8.23;5.95;;;;;;;;;;5002905;28;20064;-79
2021/10/27 19:10:55;;;;;;;10.57;5.97;;;;;;;;;;5002666;28;20519;-83
2021/10/27 19:13:42;;;;;;;9.40;5.70;;;;;;;;;;5003762;28;20525;-82
2021/10/27 19:16:06;;;;;;;10.63;6.78;;;;;;;;;;4996318;28;20034;-82
2021/10/27 19:18:32;;;;;;;9.45;6.72;;;;;;;;;;5007556;28;20464;-85
2021/10/27 19:20:57;;;;;;;10.60;5.97;;;;;;;;;;5001905;28;20336;-79
2021/10/27 19:23:24;;;;;;;9.63;5.82;;;;;;;;;;5000100;28;20040;-80
2021/10/27 19:28:55;;;;;;;9.50;5.90;;;;;;;;;;4960687;28;20036;-82
2021/10/27 19:31:43;;;;;;;8.13;5.53;;;;;;;;;;5003158;28;20057;-80
2021/10/27 20:04:54;;;;;;;11.65;7.03;;;;;;;;;;5003098;28;20053;-86
2021/10/27 20:10:01;;;;;;;14.77;7.25;;;;;;;;;;5003014;28;20100;-82
2021/10/27 20:12:48;;;;;;;8.90;6.75;;;;;;;;;;5000903;28;20033;-80
2021/10/27 20:26:35;;;;;;;8.45;6.47;;;;;;;;;;5003032;28;20030;-79
2021/10/27 20:29:14;;;;;;;8.32;5.85;;;;;;;;;;5007548;28;20171;-80
2021/10/27 20:51:06;;;;;;;8.90;6.20;;;;;;;;;;4995426;28;20479;-80
2021/10/27 20:53:34;;;;;;;9.60;6.65;;;;;;;;;;5002738;28;20025;-79
2021/10/27 20:56:00;;;;;;;9.98;6.28;;;;;;;;;;4999764;28;20044;-81
2021/10/27 21:13:56;;;;;;;9.77;6.15;;;;;;;;;;5012578;28;20544;-88
2021/10/27 21:16:21;;;;;;;10.45;6.78;;;;;;;;;;5006675;28;20125;-79
2021/10/27 21:18:47;;;;;;;10.73;6.65;;;;;;;;;;5014924;28;20095;-88
2021/10/27 21:21:13;;;;;;;11.68;6.13;;;;;;;;;;5010137;28;20033;-78
2021/10/27 21:23:39;;;;;;;8.90;6.03;;;;;;;;;;5008309;28;20022;-84
2021/10/27 21:26:04;;;;;;;10.63;6.03;;;;;;;;;;5004638;28;20479;-79